Portada
METAR-TAF:

METAR-TAF

Aeroports :

Nouakchott, Mauritània

latitud: 18-18-36N, longitud: 015-58-11W, altitud: 3 m

Observació

L'informe es va fer fa 28 minuts, a les 22:00 UTC
Vent 16 kt del Nord/Nord-Oest
Temperatura 22°C
Humitat 78%
Pressió 1012 hPa
Visibilitat 10 km o més
sense núvols per sota de 1500 mi sense presència de cumulonimbus.

METAR: GQNO 232200Z 34016KT CAVOK 22/18 Q1012 NOSIG

Hora: 22:28 (22:28 UTC)

Pronòstic

L'informe es va fer fa 5 hores i 28 minuts, a les 17:00 UTC
Pronòstic vàlid del 23 a les 18 UTC al 24 a les 24 UTC
Vent 14 kt del Nord-Oest
Visibilitat: 7000 m
Temporalment
l' 24 a les 09 UTC al 24 a les 15 UTC
Vent 12 kt del Nord/Nord-Est

TAF: GQNO 231700Z 2318/2424 32014KT 7000 NSC TEMPO 2409/2415 02012KT

Observacions i pronòstics meteorològics de més de 4000 aeroports (METAR i TAF).

Les estacions disponibles són els punts grocs i vermells al mapa.

Posi el ratolí al punt desitjat per veure el nom de l'estació.

Feu clic per veure les observacions i els pronòstics meteorològics.

Per canviar el mapa: feu clic els botons verds amb una creu de color negre per apropar; al botó verd amb un guió per allunyar la imatge; o en les fletxes verdes per a mapes adjacents.


METAR-TAF: